Station: Luncheon Hill  

  Atmospheric Gas Attenuation - ITU Rec 676-11   ----------------- dB/100km -----------------
Date Time Temp RH % AH g/m3 Dew Point Wind Direction Speed kph Gust kph Barometer mB Rainfall Since 9am 24GHz 47GHz 76GHz 122GHz 134GHz 241GHz
08/05 12:30 9.4 95 8.59 8.6 28 44 1013.1 0.2 19.8 27.2 42.0 110.4 104.0 357.6
08/05 12:20 9.6 96 8.8 9 24 33 1013.1 0.2 20.2 27.5 42.8 112.5 106.7 367.0
08/05 12:10 9.4 95 8.59 8.6 26 41 1013.1 0.2 19.8 27.2 42.0 110.4 104.0 357.6
08/05 12:00 9.6 94 8.61 8.7 28 43 1013.1 0 19.8 27.2 42.0 110.3 104.0 357.7
08/05 11:50 10 92 8.65 8.8 26 39 1013.1 0 19.9 27.1 42.0 110.2 104.1 357.8
08/05 11:40 10.2 92 8.76 9 24 33 1013.1 0 20.1 27.2 42.3 111.2 105.3 362.2
08/05 11:30 9.8 90 8.35 8.2 22 35 1013.1 0 19.2 26.7 40.8 107.1 100.2 344.1
08/05 11:20 10.8 87 8.6 8.7 17 22 1013.1 0 19.7 26.8 41.3 108.5 102.3 351.7
08/05 11:10 10.6 88 8.59 8.7 17 28 1013.1 0 19.7 26.8 41.4 108.7 102.4 352.1
08/05 11:00 10.4 93 8.97 9.3 26 43 1013.1 0 20.6 27.5 43.1 113.3 108.0 371.6
08/05 10:50 9.8 91 8.45 8.4 28 32 1013.1 0 19.5 26.8 41.2 108.2 101.5 348.9
08/05 10:40 9.7 92 8.48 8.5 26 35 1013.1 0 19.5 26.9 41.4 108.7 102.1 350.9
08/05 10:30 9.2 93 8.31 8.1 22 33 1013.1 0 19.2 26.8 40.9 107.5 100.4 344.8
08/05 10:20 9.1 91 8.08 7.7 22 28 1013.1 0 18.7 26.4 40.0 105.0 97.3 334.1
08/05 10:10 9.1 90 7.99 7.5 32 41 1013.1 0 18.5 26.3 39.7 104.0 96.1 329.7
08/05 10:00 9 91 8.03 7.6 28 41 1013.1 0 18.6 26.4 39.9 104.6 96.8 332.1
08/05 09:50 8.9 92 8.06 7.7 30 41 1013.1 0 18.7 26.4 40.0 105.1 97.3 334.0
08/05 09:40 8.8 93 8.1 7.7 26 33 1013.1 0 18.8 26.5 40.3 105.7 98.0 336.4
08/05 09:30 8.7 92 7.96 7.5 30 48 1013.1 0 18.5 26.3 39.7 104.2 96.2 330.0
08/05 09:20 8.7 91 7.87 7.3 30 41 1013.1 0 18.3 26.2 39.3 103.2 94.9 325.6
08/05 09:10 8.6 93 7.99 7.5 22 33 1013.1 0 18.5 26.4 39.9 104.7 96.7 331.9
08/05 09:00 8.5 93 7.94 7.4 32 54 1013.1 0 18.4 26.4 39.7 104.3 96.1 329.9
08/05 08:50 8.4 94 7.98 7.5 33 46 1013.1 18.2 18.5 26.5 40.0 104.8 96.8 332.2
08/05 08:40 8.3 93 7.84 7.2 33 50 1013.1 18.2 18.2 26.2 39.4 103.4 95.0 325.9
08/05 08:30 8.1 94 7.82 7.2 37 61 1013.1 18.2 18.2 26.3 39.4 103.4 95.0 325.7
08/05 08:20 7.9 95 7.81 7.1 39 63 1013.1 18.2 18.2 26.3 39.5 103.6 95.1 326.1
08/05 08:10 7.9 96 7.89 7.3 44 57 1013.1 18.2 18.3 26.5 39.8 104.5 96.2 330.0
08/05 08:00 8.1 96 7.99 7.5 39 63 1013.1 18.2 18.6 26.6 40.2 105.4 97.3 334.0
08/05 07:50 8.1 96 7.99 7.5 33 44 1013.1 18 18.6 26.6 40.2 105.4 97.3 334.0
08/05 07:40 8 96 7.94 7.4 28 43 1013.1 18 18.4 26.5 40.0 104.9 96.8 332.0
08/05 07:30 8 96 7.94 7.4 33 59 1013.1 18 18.4 26.5 40.0 104.9 96.8 332.0
08/05 07:20 7.8 96 7.84 7.2 39 52 1013.1 18 18.2 26.4 39.7 104.1 95.6 328.0
08/05 07:10 7.8 96 7.84 7.2 39 52 1013.1 18 18.2 26.4 39.7 104.1 95.6 328.0
08/05 07:00 7.9 96 7.89 7.3 37 59 1013.1 18 18.3 26.5 39.8 104.5 96.2 330.0
08/05 06:50 8 96 7.94 7.4 43 54 1013.1 18 18.4 26.5 40.0 104.9 96.8 332.0
08/05 06:40 7.9 96 7.89 7.3 30 43 1013.1 18 18.3 26.5 39.8 104.5 96.2 330.0
08/05 06:30 7.8 96 7.84 7.2 37 65 1013.1 18 18.2 26.4 39.7 104.1 95.6 328.0
08/05 06:20 7.8 97 7.92 7.4 41 52 1013.1 18 18.4 26.5 40.0 105.0 96.7 331.9
08/05 06:10 7.9 97 7.97 7.5 57 76 1013.1 18 18.5 26.6 40.2 105.4 97.3 333.9
08/05 06:00 7.9 97 7.97 7.5 46 80 1013.1 18 18.5 26.6 40.2 105.4 97.3 333.9
08/05 05:50 8 97 8.02 7.6 44 59 1013.1 18 18.6 26.6 40.3 105.8 97.9 335.9
08/05 05:40 7.7 97 7.87 7.3 52 74 1013.1 18 18.3 26.5 39.9 104.5 96.2 329.9
08/05 05:30 7.3 97 7.67 6.9 52 82 1013.1 18 17.9 26.3 39.2 102.8 93.9 321.8
08/05 05:20 7.4 98 7.8 7.1 41 65 1013.1 18 18.2 26.4 39.7 104.2 95.6 327.7
08/05 05:10 7.7 98 7.95 7.4 46 63 1013.1 18 18.5 26.6 40.2 105.5 97.3 333.8
08/05 05:00 7.9 98 8.05 7.6 46 74 1013.1 18 18.7 26.7 40.5 106.3 98.4 337.8
08/05 04:50 8.1 98 8.16 7.8 43 67 1013.1 18 18.9 26.9 40.9 107.3 99.7 342.4
08/05 04:40 8.2 98 8.21 7.9 46 65 1013.1 17.8 19.0 26.9 41.0 107.7 100.3 344.4
08/05 04:30 8 98 8.11 7.7 48 78 1013.1 17.8 18.8 26.8 40.7 106.9 99.2 340.3
08/05 04:20 7.9 98 8.05 7.6 46 74 1013.1 17.8 18.7 26.7 40.5 106.3 98.4 337.8
08/05 04:10 8.2 98 8.21 7.9 48 67 1013.1 17.8 19.0 26.9 41.0 107.7 100.3 344.4
08/05 04:00 8.1 98 8.16 7.8 50 74 1013.1 17.8 18.9 26.9 40.9 107.3 99.7 342.4
08/05 03:50 8 98 8.11 7.7 41 65 1013.1 17.8 18.8 26.8 40.7 106.9 99.2 340.3
08/05 03:40 7.9 98 8.05 7.6 57 76 1013.1 17.8 18.7 26.7 40.5 106.3 98.4 337.8
08/05 03:30 8.2 98 8.21 7.9 48 76 1013.1 17.8 19.0 26.9 41.0 107.7 100.3 344.4
08/05 03:20 8.1 98 8.16 7.8 43 57 1013.1 17.8 18.9 26.9 40.9 107.3 99.7 342.4
08/05 03:10 8.4 98 8.32 8.1 39 50 1013.1 17.6 19.2 27.0 41.4 108.7 101.6 348.9
08/05 03:00 8.6 98 8.42 8.3 43 67 1013.1 17.6 19.5 27.1 41.7 109.6 102.7 352.9
08/05 02:50 8.9 98 8.59 8.6 39 50 1013.1 17.6 19.8 27.3 42.3 111.1 104.7 359.9
08/05 02:40 9.1 99 8.79 9 30 48 1013.1 17.4 20.2 27.6 43.1 113.1 107.3 368.9
08/05 02:30 9 99 8.73 8.9 37 61 1013.1 17 20.1 27.6 42.9 112.6 106.6 366.4
08/05 02:20 9 99 8.73 8.9 28 39 1013.1 17 20.1 27.6 42.9 112.6 106.6 366.4
08/05 02:10 9 98 8.64 8.7 37 56 1013.1 16.8 19.9 27.4 42.5 111.5 105.3 361.9
08/05 02:00 9 98 8.64 8.7 32 50 1013.1 16.8 19.9 27.4 42.5 111.5 105.3 361.9
08/05 01:50 9 98 8.64 8.7 32 39 1013.1 16.6 19.9 27.4 42.5 111.5 105.3 361.9
08/05 01:40 9 98 8.64 8.7 41 56 1013.1 16 19.9 27.4 42.5 111.5 105.3 361.9
08/05 01:30 9 98 8.64 8.7 37 69 1013.1 15.8 19.9 27.4 42.5 111.5 105.3 361.9
08/05 01:20 9.1 98 8.7 8.8 33 50 1013.1 15.8 20.0 27.5 42.7 112.1 106.0 364.4
08/05 01:10 9.1 98 8.7 8.8 30 44 1013.1 15.6 20.0 27.5 42.7 112.1 106.0 364.4
08/05 01:00 9.1 98 8.7 8.8 32 50 1013.1 15.6 20.0 27.5 42.7 112.1 106.0 364.4
08/05 00:50 9.1 98 8.7 8.8 33 44 1013.1 15.4 20.0 27.5 42.7 112.1 106.0 364.4
08/05 00:40 9.1 98 8.7 8.8 32 54 1013.1 15.2 20.0 27.5 42.7 112.1 106.0 364.4
08/05 00:30 9.1 98 8.7 8.8 35 57 1013.1 15.2 20.0 27.5 42.7 112.1 106.0 364.4
08/05 00:20 9.2 98 8.75 8.9 37 46 1013.1 15.2 20.1 27.5 42.8 112.5 106.6 366.4
08/05 00:10 9.2 98 8.75 8.9 33 48 1013.1 15 20.1 27.5 42.8 112.5 106.6 366.4
08/05 00:00 9.3 98 8.81 9 35 59 1013.1 15 20.3 27.6 43.0 113.0 107.3 368.9
07/05 23:50 9.3 98 8.81 9 37 56 1013.1 15 20.3 27.6 43.0 113.0 107.3 368.9
07/05 23:40 9.4 98 8.87 9.1 41 57 1013.1 15 20.4 27.7 43.2 113.6 108.0 371.4
07/05 23:30 9.5 99 9.01 9.4 35 59 1013.1 14.8 20.7 27.9 43.8 115.0 109.8 377.9
07/05 23:20 9.5 99 9.01 9.4 46 63 1013.1 14.8 20.7 27.9 43.8 115.0 109.8 377.9
07/05 23:10 9.5 99 9.01 9.4 35 52 1013.1 14.6 20.7 27.9 43.8 115.0 109.8 377.9
07/05 23:00 9.6 99 9.07 9.5 37 65 1013.1 14.6 20.8 28.0 44.0 115.6 110.5 380.4
07/05 22:50 9.6 99 9.07 9.5 35 61 1013.1 14.6 20.8 28.0 44.0 115.6 110.5 380.4
07/05 22:40 9.7 99 9.13 9.6 39 56 1013.1 14.6 20.9 28.0 44.2 116.1 111.3 382.9
07/05 22:30 9.7 99 9.13 9.6 35 69 1013.1 14.4 20.9 28.0 44.2 116.1 111.3 382.9
07/05 22:20 9.8 99 9.19 9.7 37 59 1013.1 13.8 21.1 28.1 44.4 116.7 112.0 385.4
07/05 22:10 9.8 99 9.19 9.7 28 37 1013.1 13.6 21.1 28.1 44.4 116.7 112.0 385.4
07/05 22:00 9.7 99 9.13 9.6 33 54 1013.1 13.2 20.9 28.0 44.2 116.1 111.3 382.9
07/05 21:50 9.7 99 9.13 9.6 39 50 1013.1 12.8 20.9 28.0 44.2 116.1 111.3 382.9
07/05 21:40 9.7 98 9.04 9.4 22 32 1013.1 12.2 20.7 27.9 43.8 115.1 110.0 378.4
07/05 21:30 9.6 98 8.98 9.3 30 57 1013.1 12 20.6 27.8 43.6 114.5 109.3 375.9
07/05 21:20 9.5 99 9.01 9.4 37 48 1013.1 12 20.7 27.9 43.8 115.0 109.8 377.9
07/05 21:10 9.4 98 8.87 9.1 28 35 1013.1 11.8 20.4 27.7 43.2 113.6 108.0 371.4
07/05 21:00 9.3 98 8.81 9 24 50 1013.1 11.4 20.3 27.6 43.0 113.0 107.3 368.9
07/05 20:50 9.3 98 8.81 9 32 43 1013.1 10.6 20.3 27.6 43.0 113.0 107.3 368.9
07/05 20:40 9.2 98 8.75 8.9 24 32 1013.1 9.6 20.1 27.5 42.8 112.5 106.6 366.4
07/05 20:30 9.3 98 8.81 9 24 39 1013.1 9.4 20.3 27.6 43.0 113.0 107.3 368.9
07/05 20:20 9.3 98 8.81 9 26 32 1013.1 9.4 20.3 27.6 43.0 113.0 107.3 368.9
07/05 20:10 9.2 99 8.84 9.1 28 35 1013.1 9.2 20.3 27.7 43.2 113.5 107.8 370.9
07/05 20:00 9.2 99 8.84 9.1 30 46 1013.1 9.2 20.3 27.7 43.2 113.5 107.8 370.9

Last Refresh: 08-May-2026 12:09:35

Bureau of Meteorology